sensor_id;sensor_type;location;lat;lon;timestamp;pressure;altitude;pressure_sealevel;temperature;humidity
10167;BME280;62970;53.130;8.244;2023-03-22T02:38:10;100753.75;;;8.33;67.18
10167;BME280;62970;53.130;8.244;2023-03-22T02:40:49;100756.31;;;8.36;67.02
10167;BME280;62970;53.130;8.244;2023-03-22T02:43:28;100744.13;;;8.40;67.38
10167;BME280;62970;53.130;8.244;2023-03-22T02:46:07;100745.78;;;8.44;67.32
10167;BME280;62970;53.130;8.244;2023-03-22T02:48:43;100747.47;;;8.48;67.29
10167;BME280;62970;53.130;8.244;2023-03-22T02:51:23;100744.81;;;8.51;67.07
10167;BME280;62970;53.130;8.244;2023-03-22T02:53:57;100741.31;;;8.53;67.18
10167;BME280;62970;53.130;8.244;2023-03-22T02:56:38;100737.81;;;8.56;67.33
10167;BME280;62970;53.130;8.244;2023-03-22T02:59:13;100734.31;;;8.58;67.32
10167;BME280;62970;53.130;8.244;2023-03-22T03:01:47;100728.22;;;8.59;67.11
10167;BME280;62970;53.130;8.244;2023-03-22T03:04:20;100729.91;;;8.62;67.09
10167;BME280;62970;53.130;8.244;2023-03-22T03:06:57;100730.78;;;8.63;66.90
10167;BME280;62970;53.130;8.244;2023-03-22T03:09:29;100729.88;;;8.64;67.26
10167;BME280;62970;53.130;8.244;2023-03-22T03:12:08;100733.31;;;8.66;67.18
10167;BME280;62970;53.130;8.244;2023-03-22T03:14:37;100723.75;;;8.68;67.04
10167;BME280;62970;53.130;8.244;2023-03-22T03:17:17;100732.41;;;8.68;66.69
10167;BME280;62970;53.130;8.244;2023-03-22T03:20:08;100735.88;;;8.69;67.02
10167;BME280;62970;53.130;8.244;2023-03-22T03:22:52;100732.41;;;8.68;67.02
10167;BME280;62970;53.130;8.244;2023-03-22T03:25:30;100726.34;;;8.69;66.63
10167;BME280;62970;53.130;8.244;2023-03-22T03:28:14;100724.63;;;8.68;66.65
10167;BME280;62970;53.130;8.244;2023-03-22T03:30:54;100729.81;;;8.68;66.90
10167;BME280;62970;53.130;8.244;2023-03-22T03:33:25;100729.81;;;8.68;66.89
10167;BME280;62970;53.130;8.244;2023-03-22T03:35:59;100731.53;;;8.69;67.05
10167;BME280;62970;53.130;8.244;2023-03-22T03:38:36;100721.16;;;8.68;66.68
10167;BME280;62970;53.130;8.244;2023-03-22T03:41:16;100723.75;;;8.68;66.78
10167;BME280;62970;53.130;8.244;2023-03-22T03:43:50;100713.34;;;8.68;66.90
10167;BME280;62970;53.130;8.244;2023-03-22T03:46:22;100714.19;;;8.70;66.88
10167;BME280;62970;53.130;8.244;2023-03-22T03:48:56;100707.28;;;8.69;66.60
10167;BME280;62970;53.130;8.244;2023-03-22T03:51:27;100710.72;;;8.71;66.58
10167;BME280;62970;53.130;8.244;2023-03-22T03:53:56;100709.84;;;8.70;67.08
10167;BME280;62970;53.130;8.244;2023-03-22T03:56:25;100708.16;;;8.68;67.13
10167;BME280;62970;53.130;8.244;2023-03-22T03:58:57;100705.53;;;8.69;66.82
10167;BME280;62970;53.130;8.244;2023-03-22T04:01:26;100705.53;;;8.69;66.87
10167;BME280;62970;53.130;8.244;2023-03-22T04:03:58;100702.94;;;8.69;67.25
10167;BME280;62970;53.130;8.244;2023-03-22T04:06:29;100709.00;;;8.70;66.79
10167;BME280;62970;53.130;8.244;2023-03-22T04:08:59;100702.06;;;8.70;67.12
10167;BME280;62970;53.130;8.244;2023-03-22T04:11:30;100704.66;;;8.70;66.84
10167;BME280;62970;53.130;8.244;2023-03-22T04:14:02;100695.13;;;8.69;67.13
10167;BME280;62970;53.130;8.244;2023-03-22T04:16:33;100696.03;;;8.68;66.89
10167;BME280;62970;53.130;8.244;2023-03-22T04:19:02;100700.38;;;8.68;66.66
10167;BME280;62970;53.130;8.244;2023-03-22T04:21:31;100693.47;;;8.65;66.62
10167;BME280;62970;53.130;8.244;2023-03-22T04:24:04;100690.88;;;8.65;66.58
10167;BME280;62970;53.130;8.244;2023-03-22T04:26:33;100690.03;;;8.63;67.22
10167;BME280;62970;53.130;8.244;2023-03-22T04:29:06;100692.66;;;8.62;66.91
10167;BME280;62970;53.130;8.244;2023-03-22T04:31:36;100689.22;;;8.59;66.98
10167;BME280;62970;53.130;8.244;2023-03-22T04:34:06;100688.38;;;8.59;66.66
10167;BME280;62970;53.130;8.244;2023-03-22T04:36:37;100682.34;;;8.57;66.99
10167;BME280;62970;53.130;8.244;2023-03-22T04:39:09;100684.09;;;8.56;67.14
10167;BME280;62970;53.130;8.244;2023-03-22T04:41:40;100683.19;;;8.57;67.28
10167;BME280;62970;53.130;8.244;2023-03-22T04:44:12;100687.53;;;8.58;66.56
10167;BME280;62970;53.130;8.244;2023-03-22T04:46:41;100679.75;;;8.57;66.66
10167;BME280;62970;53.130;8.244;2023-03-22T04:49:10;100684.91;;;8.58;66.64
10167;BME280;62970;53.130;8.244;2023-03-22T04:51:40;100683.19;;;8.57;66.86
10167;BME280;62970;53.130;8.244;2023-03-22T04:54:11;100671.94;;;8.57;67.21
10167;BME280;62970;53.130;8.244;2023-03-22T04:56:40;100665.03;;;8.56;67.08
10167;BME280;62970;53.130;8.244;2023-03-22T04:59:12;100667.63;;;8.56;66.82
10167;BME280;62970;53.130;8.244;2023-03-22T05:01:43;100667.63;;;8.56;66.96
10167;BME280;62970;53.130;8.244;2023-03-22T05:04:13;100665.91;;;8.55;66.74
10167;BME280;62970;53.130;8.244;2023-03-22T05:06:43;100660.75;;;8.53;66.94
10167;BME280;62970;53.130;8.244;2023-03-22T05:09:12;100657.31;;;8.51;67.18
10167;BME280;62970;53.130;8.244;2023-03-22T05:11:42;100654.72;;;8.51;67.01
10167;BME280;62970;53.130;8.244;2023-03-22T05:14:15;100656.47;;;8.51;66.89
10167;BME280;62970;53.130;8.244;2023-03-22T05:16:44;100656.44;;;8.52;67.27
10167;BME280;62970;53.130;8.244;2023-03-22T05:19:13;100652.13;;;8.51;67.06
10167;BME280;62970;53.130;8.244;2023-03-22T05:21:45;100654.72;;;8.51;67.15
10167;BME280;62970;53.130;8.244;2023-03-22T05:24:14;100647.81;;;8.50;67.17
10167;BME280;62970;53.130;8.244;2023-03-22T05:26:44;100646.94;;;8.50;66.99
10167;BME280;62970;53.130;8.244;2023-03-22T05:29:21;100640.03;;;8.49;67.15
10167;BME280;62970;53.130;8.244;2023-03-22T05:31:52;100639.13;;;8.51;67.21
10167;BME280;62970;53.130;8.244;2023-03-22T05:34:21;100633.03;;;8.52;66.97
10167;BME280;62970;53.130;8.244;2023-03-22T05:44:49;100630.19;;;8.66;67.27
10167;BME280;62970;53.130;8.244;2023-03-22T05:47:18;100623.22;;;8.70;67.09
10167;BME280;62970;53.130;8.244;2023-03-22T05:49:47;100624.84;;;8.75;66.83
10167;BME280;62970;53.130;8.244;2023-03-22T05:52:20;100620.47;;;8.79;66.90
10167;BME280;62970;53.130;8.244;2023-03-22T05:54:50;100616.06;;;8.82;66.83
10167;BME280;62970;53.130;8.244;2023-03-22T05:57:23;100612.50;;;8.88;67.31
10167;BME280;62970;53.130;8.244;2023-03-22T06:00:09;100620.25;;;8.91;67.44
10167;BME280;62970;53.130;8.244;2023-03-22T06:02:40;100608.91;;;8.95;67.28
10167;BME280;62970;53.130;8.244;2023-03-22T06:05:10;100600.16;;;8.99;67.18
10167;BME280;62970;53.130;8.244;2023-03-22T06:07:43;100607.88;;;9.02;66.86
10167;BME280;62970;53.130;8.244;2023-03-22T06:10:14;100606.91;;;9.08;66.94
10167;BME280;62970;53.130;8.244;2023-03-22T06:12:47;100614.66;;;9.11;66.71
10167;BME280;62970;53.130;8.244;2023-03-22T06:15:21;100611.13;;;9.13;66.86
10167;BME280;62970;53.130;8.244;2023-03-22T06:17:52;100610.22;;;9.16;67.18
10167;BME280;62970;53.130;8.244;2023-03-22T06:20:31;100614.50;;;9.18;66.66
10167;BME280;62970;53.130;8.244;2023-03-22T06:23:12;100609.19;;;9.23;67.00
10167;BME280;62970;53.130;8.244;2023-03-22T06:25:42;100604.78;;;9.27;67.16
10167;BME280;62970;53.130;8.244;2023-03-22T06:28:12;100603.88;;;9.29;66.90
10167;BME280;62970;53.130;8.244;2023-03-22T06:30:44;100607.25;;;9.33;66.63
10167;BME280;62970;53.130;8.244;2023-03-22T06:33:13;100603.75;;;9.35;66.90
10167;BME280;62970;53.130;8.244;2023-03-22T06:35:43;100609.72;;;9.39;67.01
10167;BME280;62970;53.130;8.244;2023-03-22T06:38:12;100600.13;;;9.42;66.55
10167;BME280;62970;53.130;8.244;2023-03-22T06:40:41;100598.31;;;9.46;66.73
10167;BME280;62970;53.130;8.244;2023-03-22T06:43:10;100585.22;;;9.49;66.42
10167;BME280;62970;53.130;8.244;2023-03-22T06:45:40;100595.56;;;9.52;66.84
10167;BME280;62970;53.130;8.244;2023-03-22T06:48:12;100594.66;;;9.54;66.94
10167;BME280;62970;53.130;8.244;2023-03-22T06:50:43;100605.84;;;9.58;66.80
10167;BME280;62970;53.130;8.244;2023-03-22T06:53:13;100598.81;;;9.62;66.67
10167;BME280;62970;53.130;8.244;2023-03-22T06:55:42;100599.66;;;9.64;66.64
10167;BME280;62970;53.130;8.244;2023-03-22T06:58:11;100601.31;;;9.66;66.67
10167;BME280;62970;53.130;8.244;2023-03-22T07:00:41;100602.97;;;9.70;66.32
10167;BME280;62970;53.130;8.244;2023-03-22T07:03:13;100592.53;;;9.72;66.33
10167;BME280;62970;53.130;8.244;2023-03-22T07:05:42;100598.50;;;9.75;66.13
10167;BME280;62970;53.130;8.244;2023-03-22T07:08:12;100595.84;;;9.78;66.44
10167;BME280;62970;53.130;8.244;2023-03-22T07:10:42;100593.19;;;9.80;66.26
10167;BME280;62970;53.130;8.244;2023-03-22T07:13:11;100583.59;;;9.82;66.48
10167;BME280;62970;53.130;8.244;2023-03-22T07:15:40;100597.44;;;9.84;65.91
10167;BME280;62970;53.130;8.244;2023-03-22T07:18:12;100586.13;;;9.85;66.36
10167;BME280;62970;53.130;8.244;2023-03-22T07:20:41;100580.84;;;9.88;66.15
10167;BME280;62970;53.130;8.244;2023-03-22T07:23:12;100570.38;;;9.91;66.30
10167;BME280;62970;53.130;8.244;2023-03-22T07:25:41;100570.28;;;9.94;65.85
10167;BME280;62970;53.130;8.244;2023-03-22T07:28:11;100577.13;;;9.98;66.10
10167;BME280;62970;53.130;8.244;2023-03-22T07:30:40;100570.09;;;10.03;65.90
10167;BME280;62970;53.130;8.244;2023-03-22T07:33:20;100567.34;;;10.09;66.21
10167;BME280;62970;53.130;8.244;2023-03-22T07:35:51;100568.00;;;10.19;66.30
10167;BME280;62970;53.130;8.244;2023-03-22T07:38:21;100572.06;;;10.31;65.90
10167;BME280;62970;53.130;8.244;2023-03-22T07:40:53;100564.81;;;10.42;66.02
10167;BME280;62970;53.130;8.244;2023-03-22T07:43:24;100569.63;;;10.57;65.91
10167;BME280;62970;53.130;8.244;2023-03-22T07:45:57;100563.13;;;10.72;65.44
10167;BME280;62970;53.130;8.244;2023-03-22T07:48:29;100559.34;;;10.83;65.33
10167;BME280;62970;53.130;8.244;2023-03-22T07:50:59;100552.91;;;10.95;65.28
10167;BME280;62970;53.130;8.244;2023-03-22T07:53:30;100556.13;;;11.05;64.90
10167;BME280;62970;53.130;8.244;2023-03-22T07:56:03;100540.28;;;11.11;64.83
10167;BME280;62970;53.130;8.244;2023-03-22T07:58:33;100542.75;;;11.15;64.82
10167;BME280;62970;53.130;8.244;2023-03-22T08:01:08;100539.06;;;11.23;64.40
10167;BME280;62970;53.130;8.244;2023-03-22T08:03:40;100539.69;;;11.31;64.18
10167;BME280;62970;53.130;8.244;2023-03-22T08:06:12;100537.66;;;11.40;64.03
10167;BME280;62970;53.130;8.244;2023-03-22T08:08:46;100543.44;;;11.52;64.18
10167;BME280;62970;53.130;8.244;2023-03-22T08:11:19;100549.06;;;11.66;63.87
10167;BME280;62970;53.130;8.244;2023-03-22T08:13:52;100532.06;;;11.80;63.78
10167;BME280;62970;53.130;8.244;2023-03-22T08:16:24;100537.59;;;11.98;63.84
10167;BME280;62970;53.130;8.244;2023-03-22T08:18:58;100534.34;;;12.16;63.63
10167;BME280;62970;53.130;8.244;2023-03-22T08:21:29;100526.03;;;12.30;63.40
10167;BME280;62970;53.130;8.244;2023-03-22T08:24:01;100535.28;;;12.40;62.85
10167;BME280;62970;53.130;8.244;2023-03-22T08:26:36;100535.06;;;12.46;62.78
10167;BME280;62970;53.130;8.244;2023-03-22T08:29:08;100535.81;;;12.50;62.28
10167;BME280;62970;53.130;8.244;2023-03-22T08:31:37;100540.13;;;12.51;61.89
10167;BME280;62970;53.130;8.244;2023-03-22T08:34:10;100533.25;;;12.48;62.19
10167;BME280;62970;53.130;8.244;2023-03-22T08:36:40;100535.75;;;12.51;62.03
10167;BME280;62970;53.130;8.244;2023-03-22T08:39:12;100532.00;;;12.60;62.13
10167;BME280;62970;53.130;8.244;2023-03-22T08:41:43;100536.03;;;12.70;61.80
10167;BME280;62970;53.130;8.244;2023-03-22T08:44:17;100546.38;;;12.73;61.60
10167;BME280;62970;53.130;8.244;2023-03-22T08:46:52;100529.03;;;12.70;61.43
10167;BME280;62970;53.130;8.244;2023-03-22T08:49:25;100537.03;;;12.66;61.53
10167;BME280;62970;53.130;8.244;2023-03-22T08:52:03;100534.63;;;12.60;61.48
10167;BME280;62970;53.130;8.244;2023-03-22T08:54:38;100540.03;;;12.54;60.86
10167;BME280;62970;53.130;8.244;2023-03-22T08:57:48;100547.19;;;12.49;61.04
10167;BME280;62970;53.130;8.244;2023-03-22T09:00:57;100537.00;;;12.41;59.83
10167;BME280;62970;53.130;8.244;2023-03-22T09:04:06;100527.53;;;12.37;60.93
10167;BME280;62970;53.130;8.244;2023-03-22T09:07:24;100518.63;;;12.42;61.29
10167;BME280;62970;53.130;8.244;2023-03-22T09:10:31;100515.59;;;12.55;61.31
10167;BME280;62970;53.130;8.244;2023-03-22T09:13:42;100518.50;;;12.72;61.08
10167;BME280;62970;53.130;8.244;2023-03-22T09:16:20;100506.63;;;12.87;60.86
10167;BME280;62970;53.130;8.244;2023-03-22T09:18:49;100510.66;;;12.95;60.91
10167;BME280;62970;53.130;8.244;2023-03-22T09:21:20;100516.53;;;13.02;60.34
10167;BME280;62970;53.130;8.244;2023-03-22T09:23:55;100503.44;;;13.02;59.27
10167;BME280;62970;53.130;8.244;2023-03-22T09:26:27;100511.34;;;13.00;59.57
10167;BME280;62970;53.130;8.244;2023-03-22T09:29:03;100515.66;;;13.01;59.46
10167;BME280;62970;53.130;8.244;2023-03-22T09:31:36;100524.38;;;13.02;59.88
10167;BME280;62970;53.130;8.244;2023-03-22T09:34:16;100526.13;;;13.01;59.53
10167;BME280;62970;53.130;8.244;2023-03-22T09:36:49;100524.50;;;12.99;59.18
10167;BME280;62970;53.130;8.244;2023-03-22T09:39:22;100522.97;;;12.93;58.92
10167;BME280;62970;53.130;8.244;2023-03-22T09:41:57;100517.78;;;12.92;59.41
10167;BME280;62970;53.130;8.244;2023-03-22T09:44:38;100527.44;;;12.90;59.68
10167;BME280;62970;53.130;8.244;2023-03-22T09:47:17;100519.66;;;12.88;58.89
10167;BME280;62970;53.130;8.244;2023-03-22T09:49:49;100526.59;;;12.89;59.04
10167;BME280;62970;53.130;8.244;2023-03-22T09:52:24;100529.94;;;12.93;59.26
10167;BME280;62970;53.130;8.244;2023-03-22T09:54:58;100515.91;;;12.95;59.19
10167;BME280;62970;53.130;8.244;2023-03-22T09:57:34;100510.38;;;13.03;59.00
10167;BME280;62970;53.130;8.244;2023-03-22T10:00:14;100511.84;;;13.10;58.94
10167;BME280;62970;53.130;8.244;2023-03-22T10:02:57;100514.84;;;13.23;59.38
10167;BME280;62970;53.130;8.244;2023-03-22T10:05:37;100507.19;;;13.40;59.24
10167;BME280;62970;53.130;8.244;2023-03-22T10:08:32;100508.28;;;13.56;58.74
10167;BME280;62970;53.130;8.244;2023-03-22T10:11:21;100510.38;;;13.70;58.36
10167;BME280;62970;53.130;8.244;2023-03-22T10:14:04;100516.09;;;13.80;58.25
10167;BME280;62970;53.130;8.244;2023-03-22T10:16:41;100514.16;;;13.85;57.46
10167;BME280;62970;53.130;8.244;2023-03-22T10:19:20;100513.09;;;13.89;57.46
10167;BME280;62970;53.130;8.244;2023-03-22T10:21:53;100513.09;;;13.89;56.69
10167;BME280;62970;53.130;8.244;2023-03-22T10:24:34;100502.63;;;13.89;56.52
10167;BME280;62970;53.130;8.244;2023-03-22T10:27:16;100494.75;;;13.89;56.95
10167;BME280;62970;53.130;8.244;2023-03-22T10:30:01;100492.00;;;13.92;56.49
10167;BME280;62970;53.130;8.244;2023-03-22T10:32:40;100485.72;;;13.96;56.56
10167;BME280;62970;53.130;8.244;2023-03-22T10:35:18;100493.34;;;14.02;56.41
10167;BME280;62970;53.130;8.244;2023-03-22T10:37:51;100487.91;;;14.07;55.91
10167;BME280;62970;53.130;8.244;2023-03-22T10:40:25;100487.97;;;14.05;55.79
10167;BME280;62970;53.130;8.244;2023-03-22T10:43:02;100475.78;;;14.04;55.85
10167;BME280;62970;53.130;8.244;2023-03-22T10:45:44;100479.97;;;14.08;55.66
10167;BME280;62970;53.130;8.244;2023-03-22T10:48:22;100484.94;;;14.14;55.64
10167;BME280;62970;53.130;8.244;2023-03-22T10:50:53;100488.16;;;14.21;55.75
10167;BME280;62970;53.130;8.244;2023-03-22T10:53:33;100493.06;;;14.28;55.51
10167;BME280;62970;53.130;8.244;2023-03-22T10:56:11;100476.03;;;14.39;55.12
10167;BME280;62970;53.130;8.244;2023-03-22T10:58:47;100481.91;;;14.44;54.89
10167;BME280;62970;53.130;8.244;2023-03-22T11:01:30;100482.28;;;14.55;55.33
10167;BME280;62970;53.130;8.244;2023-03-22T11:04:08;100494.09;;;14.65;54.29
10167;BME280;62970;53.130;8.244;2023-03-22T11:06:42;100487.75;;;14.71;54.39
10167;BME280;62970;53.130;8.244;2023-03-22T11:09:31;100496.38;;;14.73;54.35
10167;BME280;62970;53.130;8.244;2023-03-22T11:12:02;100483.28;;;14.73;54.15
10167;BME280;62970;53.130;8.244;2023-03-22T11:14:38;100476.53;;;14.67;54.17
10167;BME280;62970;53.130;8.244;2023-03-22T11:17:14;100496.78;;;14.63;53.43
10167;BME280;62970;53.130;8.244;2023-03-22T11:19:54;100499.66;;;14.57;53.72
10167;BME280;62970;53.130;8.244;2023-03-22T11:22:29;100503.56;;;14.49;53.60
10167;BME280;62970;53.130;8.244;2023-03-22T11:25:02;100500.34;;;14.42;53.69
10167;BME280;62970;53.130;8.244;2023-03-22T11:27:35;100503.38;;;14.33;54.15
10167;BME280;62970;53.130;8.244;2023-03-22T11:30:22;100502.97;;;14.22;54.30
10167;BME280;62970;53.130;8.244;2023-03-22T11:35:52;100510.56;;;14.08;54.46
10167;BME280;62970;53.130;8.244;2023-03-22T11:38:28;100503.88;;;14.00;54.49
10167;BME280;62970;53.130;8.244;2023-03-22T11:41:04;100518.94;;;13.95;54.48
10167;BME280;62970;53.130;8.244;2023-03-22T11:43:37;100507.16;;;13.85;54.63
10167;BME280;62970;53.130;8.244;2023-03-22T11:46:11;100505.75;;;13.77;54.66
10167;BME280;62970;53.130;8.244;2023-03-22T11:48:41;100512.28;;;13.66;54.69
10167;BME280;62970;53.130;8.244;2023-03-22T11:51:17;100506.72;;;13.52;55.33
10167;BME280;62970;53.130;8.244;2023-03-22T11:54:06;100515.06;;;13.40;55.62
10167;BME280;62970;53.130;8.244;2023-03-22T11:56:41;100508.53;;;13.28;55.98
10167;BME280;62970;53.130;8.244;2023-03-22T11:59:15;100521.97;;;13.19;56.21
10167;BME280;62970;53.130;8.244;2023-03-22T12:01:54;100521.34;;;13.13;56.66
10167;BME280;62970;53.130;8.244;2023-03-22T12:04:34;100516.34;;;13.06;56.91
10167;BME280;62970;53.130;8.244;2023-03-22T12:07:15;100518.28;;;13.01;57.00
10167;BME280;62970;53.130;8.244;2023-03-22T12:09:53;100517.66;;;12.95;57.12
10167;BME280;62970;53.130;8.244;2023-03-22T12:12:28;100516.97;;;12.90;57.16
10167;BME280;62970;53.130;8.244;2023-03-22T12:15:06;100511.84;;;12.87;57.67
10167;BME280;62970;53.130;8.244;2023-03-22T12:17:52;100511.97;;;12.84;57.42
10167;BME280;62970;53.130;8.244;2023-03-22T12:20:34;100511.84;;;12.87;57.64
10167;BME280;62970;53.130;8.244;2023-03-22T12:23:13;100515.28;;;12.89;57.75
10167;BME280;62970;53.130;8.244;2023-03-22T12:25:50;100514.38;;;12.90;57.84
10167;BME280;62970;53.130;8.244;2023-03-22T12:28:27;100505.53;;;12.92;58.03
10167;BME280;62970;53.130;8.244;2023-03-22T12:31:00;100506.34;;;12.94;58.08
10167;BME280;62970;53.130;8.244;2023-03-22T12:33:43;100508.00;;;12.97;57.82
10167;BME280;62970;53.130;8.244;2023-03-22T12:36:18;100504.34;;;13.01;58.31
10167;BME280;62970;53.130;8.244;2023-03-22T12:38:51;100506.78;;;13.05;58.09
10167;BME280;62970;53.130;8.244;2023-03-22T12:41:30;100502.22;;;13.11;57.86
10167;BME280;62970;53.130;8.244;2023-03-22T12:44:03;100486.34;;;13.15;57.50
10167;BME280;62970;53.130;8.244;2023-03-22T12:46:45;100489.47;;;13.25;57.93
10167;BME280;62970;53.130;8.244;2023-03-22T12:49:29;100474.31;;;13.33;57.53
10167;BME280;62970;53.130;8.244;2023-03-22T12:52:13;100487.94;;;13.41;57.94
10167;BME280;62970;53.130;8.244;2023-03-22T12:54:45;100479.78;;;13.49;57.50
10167;BME280;62970;53.130;8.244;2023-03-22T12:57:21;100478.69;;;13.54;57.37
10167;BME280;62970;53.130;8.244;2023-03-22T13:00:00;100483.69;;;13.60;57.32
10167;BME280;62970;53.130;8.244;2023-03-22T13:02:37;100483.22;;;13.73;57.28
10167;BME280;62970;53.130;8.244;2023-03-22T13:05:12;100475.75;;;13.84;57.57
10167;BME280;62970;53.130;8.244;2023-03-22T13:07:52;100481.53;;;13.92;57.07
10167;BME280;62970;53.130;8.244;2023-03-22T13:13:48;100496.28;;;13.94;54.96
10167;BME280;62970;53.130;8.244;2023-03-22T13:16:54;100494.09;;;13.84;55.79
10167;BME280;62970;53.130;8.244;2023-03-22T13:19:39;100498.13;;;13.70;56.41
10167;BME280;62970;53.130;8.244;2023-03-22T13:22:28;100496.09;;;13.55;55.95
10167;BME280;62970;53.130;8.244;2023-03-22T13:25:26;100515.97;;;13.39;56.00
10167;BME280;62970;53.130;8.244;2023-03-22T13:27:58;100516.44;;;13.27;56.00
10167;BME280;62970;53.130;8.244;2023-03-22T13:30:32;100514.22;;;13.16;56.21
10167;BME280;62970;53.130;8.244;2023-03-22T13:33:18;100513.72;;;13.06;56.75
10167;BME280;62970;53.130;8.244;2023-03-22T13:35:57;100521.88;;;12.99;57.07
10167;BME280;62970;53.130;8.244;2023-03-22T13:38:33;100521.31;;;12.91;57.31
10167;BME280;62970;53.130;8.244;2023-03-22T13:41:07;100527.00;;;12.79;58.51
10167;BME280;62970;53.130;8.244;2023-03-22T13:43:46;100525.66;;;12.67;58.55
10167;BME280;62970;53.130;8.244;2023-03-22T13:46:42;100517.41;;;12.53;58.57
10167;BME280;62970;53.130;8.244;2023-03-22T13:52:36;100515.66;;;12.28;59.03
10167;BME280;62970;53.130;8.244;2023-03-22T13:55:41;100528.19;;;12.19;59.28
10167;BME280;62970;53.130;8.244;2023-03-22T13:58:35;100517.97;;;12.11;59.60
10167;BME280;62970;53.130;8.244;2023-03-22T14:01:18;100517.28;;;12.06;59.82
10167;BME280;62970;53.130;8.244;2023-03-22T14:06:45;100519.28;;;11.98;59.86
10167;BME280;62970;53.130;8.244;2023-03-22T14:09:24;100528.94;;;11.96;59.58
10167;BME280;62970;53.130;8.244;2023-03-22T14:12:06;100526.38;;;11.94;59.63
10167;BME280;62970;53.130;8.244;2023-03-22T14:15:02;100523.78;;;11.94;59.84
10167;BME280;62970;53.130;8.244;2023-03-22T14:17:41;100524.63;;;11.95;59.95
10167;BME280;62970;53.130;8.244;2023-03-22T14:20:17;100523.72;;;11.96;59.81
10167;BME280;62970;53.130;8.244;2023-03-22T14:22:57;100530.66;;;11.97;59.85
10167;BME280;62970;53.130;8.244;2023-03-22T14:25:35;100517.50;;;12.00;59.55
10167;BME280;62970;53.130;8.244;2023-03-22T14:28:35;100524.41;;;12.01;59.73
10167;BME280;62970;53.130;8.244;2023-03-22T14:31:16;100535.69;;;12.03;59.63
10167;BME280;62970;53.130;8.244;2023-03-22T14:33:53;100528.69;;;12.03;59.44
10167;BME280;62970;53.130;8.244;2023-03-22T14:36:34;100540.09;;;12.01;59.94
10167;BME280;62970;53.130;8.244;2023-03-22T14:39:14;100532.47;;;11.95;60.37
